createdAt,value
2017-01-28T00:00:31.828Z,92.57
2017-01-28T00:05:28.124Z,92.57
2017-01-28T00:10:24.318Z,93.23
2017-01-28T00:15:21.588Z,90.86
2017-01-28T00:20:18.366Z,91.53
2017-01-28T00:25:14.504Z,91.34
2017-01-28T00:30:11.005Z,90.30
2017-01-28T00:35:08.449Z,89.82
2017-01-28T00:40:04.347Z,89.35
2017-01-28T00:45:01.089Z,87.74
2017-01-28T00:49:58.863Z,85.99
2017-01-28T00:54:55.342Z,85.13
2017-01-28T00:59:52.075Z,84.28
2017-01-28T01:04:48.810Z,84.75
2017-01-28T01:09:45.532Z,86.22
2017-01-28T01:14:41.736Z,86.41
2017-01-28T01:19:38.207Z,86.79
2017-01-28T01:24:33.955Z,88.40
2017-01-28T01:29:31.225Z,88.40
2017-01-28T01:34:27.298Z,89.59
2017-01-28T01:39:24.787Z,89.78
2017-01-28T01:44:22.304Z,89.78
2017-01-28T01:49:18.351Z,89.97
2017-01-28T01:54:15.192Z,89.21
2017-01-28T01:59:12.011Z,85.28
2017-01-28T02:04:08.518Z,84.23
2017-01-28T02:09:05.204Z,82.53
2017-01-28T02:14:02.639Z,82.15
2017-01-28T02:18:59.174Z,81.40
2017-01-28T02:23:55.799Z,85.47
2017-01-28T02:28:52.321Z,85.80
2017-01-28T02:33:49.470Z,85.19
2017-01-28T02:38:45.919Z,84.52
2017-01-28T02:43:43.039Z,85.52
2017-01-28T02:48:39.226Z,85.52
2017-01-28T02:53:36.520Z,87.13
2017-01-28T02:58:35.680Z,87.88
2017-01-28T03:03:32.559Z,89.02
2017-01-28T03:08:29.218Z,89.31
2017-01-28T03:13:25.942Z,89.78
2017-01-28T03:18:24.906Z,89.78
2017-01-28T03:23:20.924Z,88.93
2017-01-28T03:28:17.162Z,88.17
2017-01-28T03:33:13.486Z,89.69
2017-01-28T03:38:10.308Z,90.25
2017-01-28T03:43:06.798Z,90.06
2017-01-28T03:48:03.295Z,90.53
2017-01-28T03:52:59.939Z,90.63
2017-01-28T03:57:56.369Z,91.20
2017-01-28T04:02:52.659Z,91.39
2017-01-28T04:07:49.173Z,90.91
2017-01-28T04:12:47.246Z,91.29
2017-01-28T04:17:43.516Z,91.29
2017-01-28T04:22:40.872Z,91.39
2017-01-28T04:27:37.432Z,91.86
2017-01-28T04:37:38.111Z,91.01
2017-01-28T04:42:35.729Z,90.06
2017-01-28T04:47:32.061Z,88.93
2017-01-28T04:52:28.379Z,85.14
2017-01-28T04:57:25.753Z,84.05
2017-01-28T05:02:22.403Z,82.82
2017-01-28T05:07:18.719Z,80.83
2017-01-28T05:12:15.647Z,79.69
2017-01-28T05:17:13.190Z,78.85
2017-01-28T05:22:10.715Z,77.56
2017-01-28T05:27:07.077Z,77.56
2017-01-28T05:32:03.498Z,77.42
2017-01-28T05:37:00.460Z,77.75
2017-01-28T05:41:56.959Z,77.42
2017-01-28T05:46:53.874Z,76.86
2017-01-28T05:51:49.999Z,77.51
2017-01-28T05:56:47.578Z,76.38
2017-01-28T06:01:44.131Z,75.57
2017-01-28T06:06:40.682Z,75.09
2017-01-28T06:11:37.031Z,75.43
2017-01-28T06:16:33.373Z,76.67
2017-01-28T06:21:30.713Z,76.57
2017-01-28T06:26:26.914Z,77.04
2017-01-28T06:31:23.125Z,78.18
2017-01-28T06:36:19.545Z,79.03
2017-01-28T06:41:16.849Z,79.69
2017-01-28T06:46:13.196Z,78.94
2017-01-28T06:51:09.749Z,79.50
2017-01-28T06:56:06.365Z,79.79
2017-01-28T07:06:02.910Z,81.30
2017-01-28T07:10:59.369Z,81.96
2017-01-28T07:15:55.564Z,82.63
2017-01-28T07:20:52.284Z,83.39
2017-01-28T07:25:48.732Z,82.72
2017-01-28T07:30:45.097Z,81.77
2017-01-28T07:35:41.735Z,82.82
2017-01-28T07:40:40.173Z,83.10
2017-01-28T07:45:36.379Z,82.82
2017-01-28T07:50:33.559Z,81.87
2017-01-28T07:55:29.791Z,81.21
2017-01-28T08:00:26.284Z,80.55
2017-01-28T08:05:22.828Z,80.21
2017-01-28T08:10:19.451Z,80.68
2017-01-28T08:15:15.953Z,80.02
2017-01-28T08:20:12.524Z,80.02
2017-01-28T08:25:09.107Z,77.56
2017-01-28T08:30:05.800Z,76.74
2017-01-28T08:35:02.143Z,75.23
2017-01-28T08:39:58.844Z,77.22
2017-01-28T08:44:56.111Z,77.59
2017-01-28T08:49:52.715Z,76.27
2017-01-28T08:54:50.217Z,75.98
2017-01-28T08:59:47.597Z,77.03
2017-01-28T09:04:44.340Z,78.54
2017-01-28T09:09:41.205Z,76.27
2017-01-28T09:14:38.022Z,74.51
2017-01-28T09:19:34.600Z,72.04
2017-01-28T09:24:32.131Z,70.75
2017-01-28T09:29:28.937Z,68.95
2017-01-28T09:34:26.205Z,66.96
2017-01-28T09:39:23.473Z,66.67
2017-01-28T09:44:20.153Z,66.48
2017-01-28T09:49:16.762Z,66.29
2017-01-28T09:54:13.424Z,64.81
2017-01-28T09:59:09.913Z,64.24
2017-01-28T10:04:06.620Z,66.71
2017-01-28T10:09:03.216Z,67.94
2017-01-28T10:13:59.665Z,64.90
2017-01-28T10:18:56.372Z,63.60
2017-01-28T10:23:52.905Z,63.32
2017-01-28T10:28:50.757Z,61.26
2017-01-28T10:33:47.278Z,59.30
2017-01-28T10:38:43.441Z,57.59
2017-01-28T10:43:40.754Z,56.29
2017-01-28T10:53:37.870Z,57.59
2017-01-28T10:58:34.460Z,58.83
2017-01-28T11:03:30.892Z,59.58
2017-01-28T11:08:27.876Z,59.96
2017-01-28T11:13:24.551Z,57.68
2017-01-28T11:18:21.255Z,57.62
2017-01-28T11:23:18.689Z,50.44
2017-01-28T11:28:15.575Z,48.16
2017-01-28T11:33:12.070Z,47.97
2017-01-28T11:38:08.513Z,48.16
2017-01-28T11:43:05.062Z,47.20
2017-01-28T11:48:01.672Z,44.35
2017-01-28T11:52:58.469Z,43.40
2017-01-28T11:57:55.270Z,41.33
2017-01-28T12:02:51.934Z,42.73
2017-01-28T12:07:49.229Z,43.59
2017-01-28T12:12:47.226Z,44.45
2017-01-28T12:17:43.604Z,44.54
2017-01-28T12:22:40.307Z,44.35
2017-01-28T12:27:37.176Z,44.82
2017-01-28T12:32:34.083Z,45.21
2017-01-28T12:37:30.956Z,45.14
2017-01-28T12:42:27.518Z,44.18
2017-01-28T12:47:24.284Z,45.04
2017-01-28T12:52:20.913Z,45.32
2017-01-28T12:57:17.365Z,45.51
2017-01-28T13:02:14.313Z,45.89
2017-01-28T13:07:11.184Z,46.56
2017-01-28T13:12:07.598Z,47.42
2017-01-28T13:17:04.839Z,48.27
2017-01-28T13:22:00.846Z,49.71
2017-01-28T13:26:57.234Z,49.61
2017-01-28T13:31:53.637Z,50.09
2017-01-28T13:36:50.460Z,51.04
2017-01-28T13:41:47.125Z,51.80
2017-01-28T13:46:43.665Z,52.59
2017-01-28T13:51:40.371Z,53.42
2017-01-28T13:56:37.014Z,54.75
2017-01-28T14:01:33.669Z,56.09
2017-01-28T14:06:30.498Z,57.51
2017-01-28T14:11:27.164Z,59.32
2017-01-28T14:16:24.459Z,59.99
2017-01-28T14:21:20.867Z,60.66
2017-01-28T14:26:18.584Z,61.61
2017-01-28T14:31:15.480Z,61.42
2017-01-28T14:36:11.782Z,61.51
2017-01-28T14:41:08.477Z,61.70
2017-01-28T14:46:04.878Z,61.70
2017-01-28T14:51:02.673Z,61.32
2017-01-28T14:56:00.322Z,61.90
2017-01-28T15:00:57.802Z,63.51
2017-01-28T15:05:53.837Z,63.04
2017-01-28T15:10:50.539Z,64.75
2017-01-28T15:15:47.374Z,65.00
2017-01-28T15:20:43.395Z,66.24
2017-01-28T15:25:41.124Z,67.10
2017-01-28T15:30:37.316Z,67.76
2017-01-28T15:35:33.610Z,68.81
2017-01-28T15:40:30.591Z,69.63
2017-01-28T15:45:26.731Z,70.77
2017-01-28T15:50:24.496Z,72.01
2017-01-28T15:55:20.577Z,73.34
2017-01-28T16:00:18.505Z,75.02
2017-01-28T16:05:15.915Z,76.54
2017-01-28T16:10:11.893Z,78.72
2017-01-28T16:15:09.246Z,79.92
2017-01-28T16:20:05.520Z,80.05
2017-01-28T16:25:01.699Z,79.96
2017-01-28T16:29:58.176Z,79.58
2017-01-28T16:34:55.609Z,80.15
2017-01-28T16:39:52.113Z,80.63
2017-01-28T16:44:48.821Z,81.01
2017-01-28T16:49:45.166Z,81.48
2017-01-28T16:54:41.867Z,81.58
2017-01-28T16:59:38.481Z,81.96
2017-01-28T17:04:38.769Z,82.34
2017-01-28T17:09:34.382Z,83.19
2017-01-28T17:14:30.888Z,84.01
2017-01-28T17:19:27.410Z,83.62
2017-01-28T17:24:24.113Z,84.43
2017-01-28T17:29:20.414Z,84.24
2017-01-28T17:34:22.555Z,84.33
2017-01-28T17:39:18.088Z,84.86
2017-01-28T17:44:14.519Z,85.05
2017-01-28T17:49:10.756Z,85.62
2017-01-28T17:54:07.333Z,85.62
2017-01-28T17:59:11.054Z,86.00
2017-01-28T18:04:07.010Z,86.00
2017-01-28T18:09:04.629Z,86.29
2017-01-28T18:14:00.708Z,86.00
2017-01-28T18:18:57.301Z,86.57
2017-01-28T18:23:54.038Z,86.19
2017-01-28T18:28:50.502Z,86.57
2017-01-28T18:33:47.552Z,87.05
2017-01-28T18:38:46.465Z,87.34
2017-01-28T18:43:42.399Z,87.14
2017-01-28T18:48:39.652Z,87.24
2017-01-28T18:53:35.810Z,87.05
2017-01-28T18:58:32.965Z,86.95
2017-01-28T19:03:29.307Z,87.62
2017-01-28T19:08:25.713Z,87.14
2017-01-28T19:13:22.319Z,87.52
2017-01-28T19:18:18.710Z,87.81
2017-01-28T19:23:15.232Z,87.81
2017-01-28T19:28:11.766Z,87.34
2017-01-28T19:33:08.519Z,87.71
2017-01-28T19:38:05.033Z,87.38
2017-01-28T19:43:01.753Z,87.71
2017-01-28T19:47:57.820Z,88.09
2017-01-28T19:52:54.423Z,88.81
2017-01-28T19:57:50.771Z,88.53
2017-01-28T20:02:47.151Z,88.90
2017-01-28T20:07:44.152Z,89.19
2017-01-28T20:12:40.522Z,89.57
2017-01-28T20:17:38.112Z,89.67
2017-01-28T20:22:34.174Z,89.09
2017-01-28T20:27:30.608Z,89.47
2017-01-28T20:32:28.035Z,89.28
2017-01-28T20:37:25.253Z,89.76
2017-01-28T20:42:21.540Z,90.23
2017-01-28T20:47:17.906Z,90.23
2017-01-28T20:52:16.464Z,90.61
2017-01-28T20:57:12.452Z,90.80
2017-01-28T21:02:09.655Z,91.14
2017-01-28T21:07:05.839Z,91.33
2017-01-28T21:12:02.778Z,91.71
2017-01-28T21:16:59.027Z,91.99
2017-01-28T21:21:55.543Z,92.09
2017-01-28T21:26:53.059Z,92.47
2017-01-28T21:31:49.161Z,92.28
2017-01-28T21:36:45.640Z,92.85
2017-01-28T21:41:42.040Z,92.18
2017-01-28T21:46:39.391Z,92.18
2017-01-28T21:51:35.680Z,91.61
2017-01-28T21:56:32.685Z,91.99
2017-01-28T22:01:29.165Z,92.09
2017-01-28T22:06:25.856Z,91.80
2017-01-28T22:11:22.312Z,91.71
2017-01-28T22:16:18.697Z,91.33
2017-01-28T22:21:15.222Z,90.80
2017-01-28T22:26:11.320Z,90.66
2017-01-28T22:31:07.825Z,90.42
2017-01-28T22:36:04.016Z,90.42
2017-01-28T22:41:00.638Z,91.47
2017-01-28T22:45:57.351Z,90.52
2017-01-28T22:50:53.739Z,90.80
2017-01-28T22:55:50.517Z,90.61
2017-01-28T23:00:46.820Z,90.85
2017-01-28T23:05:43.138Z,91.94
2017-01-28T23:10:39.540Z,92.32
2017-01-28T23:15:36.344Z,94.46
2017-01-28T23:20:32.933Z,95.22
2017-01-28T23:25:29.474Z,95.60
2017-01-28T23:30:25.960Z,96.74
2017-01-28T23:35:21.963Z,97.31
2017-01-28T23:40:19.397Z,99.97
2017-01-28T23:45:15.474Z,99.99
2017-01-28T23:50:12.177Z,99.99
2017-01-28T23:55:08.568Z,99.99
